Time,TemperatureF,DewpointF,PressureIn,WindDirection,WindDirectionDegrees,WindSpeedMPH,WindSpeedGustMPH,Humidity,HourlyPrecipIn,Conditions,Clouds,dailyrainin,SoftwareType,DateUTC
2013-09-15 00:02:00,49.0,45.0,-100.00,ESE,118,2.0,4.0,87,0.00,,,0.00,,2013-09-15 07:02:00,
2013-09-15 00:11:00,49.0,45.0,-100.00,ESE,118,2.0,4.0,87,0.00,,,0.00,,2013-09-15 07:11:00,
2013-09-15 00:42:00,48.0,45.0,-100.00,ESE,108,2.0,3.0,91,0.00,,,0.00,,2013-09-15 07:42:00,
2013-09-15 00:52:00,48.0,45.0,-100.00,ESE,108,2.0,3.0,91,0.00,,,0.00,,2013-09-15 07:52:00,
2013-09-15 01:02:00,48.0,45.0,-100.00,ESE,108,2.0,3.0,91,0.00,,,0.00,,2013-09-15 08:02:00,
2013-09-15 01:11:00,48.0,45.0,-100.00,ESE,108,2.0,3.0,91,0.00,,,0.00,,2013-09-15 08:11:00,
2013-09-15 01:43:00,47.0,45.0,-100.00,ESE,103,0.0,3.0,94,0.00,,,0.00,,2013-09-15 08:43:00,
2013-09-15 01:52:00,47.0,45.0,-100.00,ESE,103,0.0,3.0,94,0.00,,,0.00,,2013-09-15 08:52:00,
2013-09-15 02:02:00,47.0,45.0,-100.00,ESE,103,0.0,3.0,94,0.00,,,0.00,,2013-09-15 09:02:00,
2013-09-15 02:12:00,47.0,45.0,-100.00,ESE,103,0.0,3.0,94,0.00,,,0.00,,2013-09-15 09:12:00,
2013-09-15 02:44:00,46.0,45.0,-100.00,ESE,110,0.0,0.0,95,0.00,,,0.00,,2013-09-15 09:44:00,
2013-09-15 02:53:00,46.0,45.0,-100.00,ESE,110,0.0,0.0,95,0.00,,,0.00,,2013-09-15 09:53:00,
2013-09-15 03:03:00,46.0,45.0,-100.00,ESE,110,0.0,0.0,95,0.00,,,0.00,,2013-09-15 10:03:00,
2013-09-15 03:13:00,46.0,45.0,-100.00,ESE,110,0.0,0.0,95,0.00,,,0.00,,2013-09-15 10:13:00,
2013-09-15 03:43:00,46.0,45.0,-100.00,ESE,106,1.0,3.0,96,0.00,,,0.00,,2013-09-15 10:43:00,
2013-09-15 03:53:00,46.0,45.0,-100.00,ESE,106,1.0,3.0,96,0.00,,,0.00,,2013-09-15 10:53:00,
2013-09-15 04:02:00,46.0,45.0,-100.00,ESE,106,1.0,3.0,96,0.00,,,0.00,,2013-09-15 11:02:00,
2013-09-15 04:12:00,46.0,45.0,-100.00,ESE,106,1.0,3.0,96,0.00,,,0.00,,2013-09-15 11:12:00,
2013-09-15 04:42:00,46.0,45.0,-100.00,East,96,1.0,2.0,98,0.00,,,0.00,,2013-09-15 11:42:00,
2013-09-15 04:52:00,46.0,45.0,-100.00,East,96,1.0,2.0,98,0.00,,,0.00,,2013-09-15 11:52:00,
2013-09-15 05:02:00,46.0,45.0,-100.00,East,96,1.0,2.0,98,0.00,,,0.00,,2013-09-15 12:02:00,
2013-09-15 05:12:00,46.0,45.0,-100.00,East,96,1.0,2.0,98,0.00,,,0.00,,2013-09-15 12:12:00,
2013-09-15 05:42:00,45.0,44.0,-100.00,ESE,109,0.0,0.0,98,0.00,,,-99.99,,2013-09-15 12:42:00,
2013-09-15 05:52:00,45.0,44.0,-100.00,ESE,109,0.0,0.0,98,0.00,,,-99.99,,2013-09-15 12:52:00,
2013-09-15 06:01:00,45.0,44.0,-100.00,ESE,109,0.0,0.0,98,0.00,,,-99.99,,2013-09-15 13:01:00,
2013-09-15 06:11:00,45.0,44.0,-100.00,ESE,109,0.0,0.0,98,0.00,,,-99.99,,2013-09-15 13:11:00,
2013-09-15 06:42:00,45.0,44.0,-100.00,ESE,120,3.0,5.0,98,0.00,,,-99.99,,2013-09-15 13:42:00,
2013-09-15 06:53:00,45.0,44.0,-100.00,ESE,120,3.0,5.0,98,0.00,,,-99.99,,2013-09-15 13:53:00,
2013-09-15 07:02:00,45.0,44.0,-100.00,ESE,120,3.0,5.0,98,0.00,,,-99.99,,2013-09-15 14:02:00,
2013-09-15 07:11:00,45.0,44.0,-100.00,ESE,120,3.0,5.0,98,0.00,,,-99.99,,2013-09-15 14:11:00,
2013-09-15 12:42:00,78.0,47.0,-100.00,NNW,334,4.0,12.0,34,0.00,,,0.00,,2013-09-15 19:42:00,
2013-09-15 12:52:00,78.0,47.0,-100.00,NNW,334,4.0,12.0,34,0.00,,,0.00,,2013-09-15 19:52:00,
2013-09-15 13:02:00,78.0,47.0,-100.00,NNW,334,4.0,12.0,34,0.00,,,0.00,,2013-09-15 20:02:00,
2013-09-15 13:11:00,78.0,47.0,-100.00,NNW,334,4.0,12.0,34,0.00,,,0.00,,2013-09-15 20:11:00,
2013-09-15 13:42:00,74.0,45.0,-100.00,WNW,286,6.0,14.0,35,0.00,,,0.00,,2013-09-15 20:42:00,
2013-09-15 13:53:00,74.0,45.0,-100.00,WNW,286,6.0,14.0,35,0.00,,,0.00,,2013-09-15 20:53:00,
2013-09-15 14:02:00,74.0,45.0,-100.00,WNW,286,6.0,14.0,35,0.00,,,0.00,,2013-09-15 21:02:00,
2013-09-15 14:11:00,74.0,45.0,-100.00,WNW,286,6.0,14.0,35,0.00,,,0.00,,2013-09-15 21:11:00,
2013-09-15 14:44:00,75.0,50.0,-100.00,NW,306,5.0,11.0,42,0.00,,,0.00,,2013-09-15 21:44:00,
2013-09-15 14:54:00,75.0,50.0,-100.00,NW,306,5.0,11.0,42,0.00,,,0.00,,2013-09-15 21:54:00,
2013-09-15 15:04:00,75.0,50.0,-100.00,NW,306,5.0,11.0,42,0.00,,,0.00,,2013-09-15 22:04:00,
2013-09-15 15:14:00,75.0,50.0,-100.00,NW,306,5.0,11.0,42,0.00,,,0.00,,2013-09-15 22:14:00,
2013-09-15 15:44:00,75.0,50.0,-100.00,West,280,3.0,12.0,42,0.00,,,0.00,,2013-09-15 22:44:00,
2013-09-15 15:53:00,75.0,50.0,-100.00,West,280,3.0,12.0,42,0.00,,,0.00,,2013-09-15 22:53:00,
2013-09-15 16:02:00,75.0,50.0,-100.00,West,280,3.0,12.0,42,0.00,,,0.00,,2013-09-15 23:02:00,
2013-09-15 16:12:00,75.0,50.0,-100.00,West,280,3.0,12.0,42,0.00,,,0.00,,2013-09-15 23:12:00,
2013-09-15 16:42:00,76.0,45.0,-100.00,NNE,33,6.0,12.0,33,0.00,,,0.00,,2013-09-15 23:42:00,
2013-09-15 16:53:00,76.0,45.0,-100.00,NNE,33,6.0,12.0,33,0.00,,,0.00,,2013-09-15 23:53:00,
2013-09-15 17:01:00,76.0,45.0,-100.00,NNE,33,6.0,12.0,33,0.00,,,0.00,,2013-09-16 00:01:00,
2013-09-15 17:11:00,76.0,45.0,-100.00,NNE,33,6.0,12.0,33,0.00,,,0.00,,2013-09-16 00:11:00,
2013-09-15 17:42:00,76.0,46.0,-100.00,NW,307,4.0,14.0,35,0.00,,,0.00,,2013-09-16 00:42:00,
2013-09-15 17:52:00,76.0,46.0,-100.00,NW,307,4.0,14.0,35,0.00,,,0.00,,2013-09-16 00:52:00,
2013-09-15 18:02:00,76.0,46.0,-100.00,NW,307,4.0,14.0,35,0.00,,,0.00,,2013-09-16 01:02:00,
2013-09-15 18:12:00,76.0,46.0,-100.00,NW,307,4.0,14.0,35,0.00,,,0.00,,2013-09-16 01:12:00,
2013-09-15 18:42:00,73.0,44.0,-100.00,West,265,3.0,9.0,36,0.00,,,0.00,,2013-09-16 01:42:00,
2013-09-15 18:52:00,73.0,44.0,-100.00,West,265,3.0,9.0,36,0.00,,,0.00,,2013-09-16 01:52:00,
2013-09-15 19:02:00,73.0,44.0,-100.00,West,265,3.0,9.0,36,0.00,,,0.00,,2013-09-16 02:02:00,
2013-09-15 19:12:00,73.0,44.0,-100.00,West,265,3.0,9.0,36,0.00,,,0.00,,2013-09-16 02:12:00,
2013-09-15 19:42:00,66.0,46.0,-100.00,East,92,2.0,7.0,49,0.00,,,0.00,,2013-09-16 02:42:00,
2013-09-15 19:52:00,66.0,46.0,-100.00,East,92,2.0,7.0,49,0.00,,,0.00,,2013-09-16 02:52:00,
2013-09-15 20:02:00,66.0,46.0,-100.00,East,92,2.0,7.0,49,0.00,,,0.00,,2013-09-16 03:02:00,
2013-09-15 20:11:00,66.0,46.0,-100.00,East,92,2.0,7.0,49,0.00,,,0.00,,2013-09-16 03:11:00,
2013-09-15 20:45:00,59.0,47.0,-100.00,East,94,3.0,6.0,65,0.00,,,0.00,,2013-09-16 03:45:00,
2013-09-15 20:55:00,59.0,47.0,-100.00,East,94,3.0,6.0,65,0.00,,,0.00,,2013-09-16 03:55:00,
2013-09-15 21:05:00,59.0,47.0,-100.00,East,94,3.0,6.0,65,0.00,,,0.00,,2013-09-16 04:05:00,
2013-09-15 21:13:00,59.0,47.0,-100.00,East,94,3.0,6.0,65,0.00,,,0.00,,2013-09-16 04:13:00,
2013-09-15 21:43:00,55.0,48.0,-100.00,ESE,105,1.0,5.0,77,0.00,,,0.00,,2013-09-16 04:43:00,
2013-09-15 21:54:00,55.0,48.0,-100.00,ESE,105,1.0,5.0,77,0.00,,,0.00,,2013-09-16 04:54:00,
2013-09-15 22:04:00,55.0,48.0,-100.00,ESE,105,1.0,5.0,77,0.00,,,0.00,,2013-09-16 05:04:00,
2013-09-15 22:12:00,55.0,48.0,-100.00,ESE,105,1.0,5.0,77,0.00,,,0.00,,2013-09-16 05:12:00,
2013-09-15 22:44:00,53.0,47.0,-100.00,ESE,116,0.0,2.0,79,0.00,,,0.00,,2013-09-16 05:44:00,
2013-09-15 22:53:00,53.0,47.0,-100.00,ESE,116,0.0,2.0,79,0.00,,,0.00,,2013-09-16 05:53:00,
2013-09-15 23:02:00,53.0,47.0,-100.00,ESE,116,0.0,2.0,79,0.00,,,0.00,,2013-09-16 06:02:00,
2013-09-15 23:12:00,53.0,47.0,-100.00,ESE,116,0.0,2.0,79,0.00,,,0.00,,2013-09-16 06:12:00,
2013-09-15 23:43:00,51.0,46.0,-100.00,SE,125,1.0,1.0,83,0.00,,,0.00,,2013-09-16 06:43:00,
2013-09-15 23:52:00,51.0,46.0,-100.00,SE,125,1.0,1.0,83,0.00,,,0.00,,2013-09-16 06:52:00,